Time;durP1;ratioP1;P1;durP2;ratioP2;P2;SDS_P1;SDS_P2;PMS_P1;PMS_P2;Temp;Humidity;BMP_temperature;BMP_pressure;BME280_temperature;BME280_humidity;BME280_pressure;Samples;Min_cycle;Max_cycle;Signal;HPM_P1;HPM_P2
2023/07/16 00:01:27;;;;;;;7.03;2.72;;;;;;;;;;5011692;28;20026;-71
2023/07/16 00:03:52;;;;;;;6.72;3.00;;;;;;;;;;5013587;28;20124;-71
2023/07/16 00:06:17;;;;;;;7.63;3.70;;;;;;;;;;5013708;28;20072;-71
2023/07/16 00:08:42;;;;;;;8.88;2.92;;;;;;;;;;5013021;28;20382;-71
2023/07/16 00:11:07;;;;;;;7.45;3.10;;;;;;;;;;5013055;28;20022;-71
2023/07/16 00:13:33;;;;;;;8.38;3.00;;;;;;;;;;5012505;28;20037;-71
2023/07/16 00:15:58;;;;;;;6.93;3.00;;;;;;;;;;5012903;28;20099;-71
2023/07/16 00:18:23;;;;;;;6.13;2.90;;;;;;;;;;5013756;28;20021;-71
2023/07/16 00:20:48;;;;;;;7.32;2.92;;;;;;;;;;5013262;28;20029;-71
2023/07/16 00:23:14;;;;;;;7.40;3.10;;;;;;;;;;5004116;28;20022;-71
2023/07/16 00:25:39;;;;;;;7.45;3.17;;;;;;;;;;5013509;28;20026;-71
2023/07/16 00:28:04;;;;;;;7.72;3.10;;;;;;;;;;5013696;28;20104;-71
2023/07/16 00:30:29;;;;;;;7.88;3.03;;;;;;;;;;5013072;28;20053;-70
2023/07/16 00:32:55;;;;;;;5.57;2.70;;;;;;;;;;5012602;28;20018;-71
2023/07/16 00:35:20;;;;;;;10.20;3.10;;;;;;;;;;5013401;28;20101;-70
2023/07/16 00:37:45;;;;;;;6.90;2.80;;;;;;;;;;5013477;28;20026;-70
2023/07/16 00:40:10;;;;;;;8.80;3.30;;;;;;;;;;5012544;28;20026;-70
2023/07/16 00:42:36;;;;;;;12.30;3.17;;;;;;;;;;5011895;28;20462;-70
2023/07/16 00:45:01;;;;;;;7.82;2.95;;;;;;;;;;5013947;28;20022;-71
2023/07/16 00:47:27;;;;;;;5.38;2.70;;;;;;;;;;5011889;28;20042;-71
2023/07/16 00:49:53;;;;;;;6.18;2.47;;;;;;;;;;5013345;28;20017;-71
2023/07/16 00:52:19;;;;;;;6.05;2.95;;;;;;;;;;5007204;28;20018;-70
2023/07/16 00:54:44;;;;;;;6.43;2.70;;;;;;;;;;5013685;28;20532;-71
2023/07/16 00:57:10;;;;;;;7.10;2.95;;;;;;;;;;5013120;28;20026;-71
2023/07/16 00:59:35;;;;;;;6.18;3.05;;;;;;;;;;5012341;28;20018;-71
2023/07/16 01:02:19;;;;;;;12.52;3.22;;;;;;;;;;5011854;28;20109;-71
2023/07/16 01:04:44;;;;;;;10.38;3.13;;;;;;;;;;5009252;28;20125;-71
2023/07/16 01:07:11;;;;;;;7.88;2.90;;;;;;;;;;5010709;28;20105;-71
2023/07/16 01:09:36;;;;;;;7.93;3.42;;;;;;;;;;5013533;28;20029;-71
2023/07/16 01:12:02;;;;;;;6.53;3.00;;;;;;;;;;5008617;28;20021;-71
2023/07/16 01:14:28;;;;;;;8.90;3.05;;;;;;;;;;5011023;28;20017;-71
2023/07/16 01:16:58;;;;;;;6.20;3.45;;;;;;;;;;5010190;28;20060;-71
2023/07/16 01:19:24;;;;;;;8.07;3.33;;;;;;;;;;5012297;28;20024;-71
2023/07/16 01:22:07;;;;;;;8.35;3.40;;;;;;;;;;5011804;28;20022;-70
2023/07/16 01:24:38;;;;;;;10.02;3.45;;;;;;;;;;5012214;28;20382;-71
2023/07/16 01:27:10;;;;;;;7.63;2.88;;;;;;;;;;4991369;28;20478;-71
2023/07/16 01:29:47;;;;;;;8.25;3.17;;;;;;;;;;5002671;28;20356;-71
2023/07/16 01:32:13;;;;;;;7.38;3.47;;;;;;;;;;5004059;28;20030;-71
2023/07/16 01:34:39;;;;;;;6.30;3.53;;;;;;;;;;5013846;28;20435;-71
2023/07/16 01:37:04;;;;;;;9.50;3.38;;;;;;;;;;5013397;28;20029;-71
2023/07/16 01:39:30;;;;;;;10.25;4.15;;;;;;;;;;5013751;28;20425;-70
2023/07/16 01:41:56;;;;;;;10.38;4.60;;;;;;;;;;5013510;28;20068;-71
2023/07/16 01:44:21;;;;;;;12.25;4.65;;;;;;;;;;5007239;28;20030;-71
2023/07/16 01:46:53;;;;;;;12.68;4.85;;;;;;;;;;5007387;28;20034;-71
2023/07/16 01:49:18;;;;;;;13.93;5.60;;;;;;;;;;5013083;28;20022;-71
2023/07/16 01:51:43;;;;;;;11.02;5.68;;;;;;;;;;5013408;28;20370;-72
2023/07/16 01:54:09;;;;;;;12.52;5.55;;;;;;;;;;5011493;28;20390;-71
2023/07/16 01:56:34;;;;;;;11.82;5.38;;;;;;;;;;5013310;28;20425;-71
2023/07/16 01:58:59;;;;;;;14.27;5.70;;;;;;;;;;5012210;28;20084;-71
2023/07/16 02:01:24;;;;;;;12.35;5.32;;;;;;;;;;5009002;28;20418;-70
2023/07/16 02:03:50;;;;;;;9.82;5.18;;;;;;;;;;4990460;28;20065;-70
2023/07/16 02:06:15;;;;;;;12.15;5.20;;;;;;;;;;4993847;28;20029;-71
2023/07/16 02:08:40;;;;;;;12.25;5.45;;;;;;;;;;4994036;28;20098;-68
2023/07/16 02:11:05;;;;;;;11.35;5.25;;;;;;;;;;4993409;28;20027;-68
2023/07/16 02:13:31;;;;;;;14.20;5.50;;;;;;;;;;4993504;28;20018;-67
2023/07/16 02:15:56;;;;;;;9.60;5.00;;;;;;;;;;4993448;28;20025;-67
2023/07/16 02:18:21;;;;;;;10.00;4.97;;;;;;;;;;4988179;28;20076;-67
2023/07/16 02:20:46;;;;;;;12.30;5.50;;;;;;;;;;4992609;28;20018;-68
2023/07/16 02:23:12;;;;;;;12.95;5.25;;;;;;;;;;4993076;28;20026;-68
2023/07/16 02:25:37;;;;;;;9.45;5.10;;;;;;;;;;4993720;28;20097;-67
2023/07/16 02:28:02;;;;;;;10.77;5.22;;;;;;;;;;4993279;28;20471;-68
2023/07/16 02:30:27;;;;;;;12.95;5.68;;;;;;;;;;4991874;28;20356;-68
2023/07/16 02:32:53;;;;;;;10.18;4.75;;;;;;;;;;4992361;28;20050;-67
2023/07/16 02:35:18;;;;;;;8.63;5.00;;;;;;;;;;4993462;28;20077;-68
2023/07/16 02:37:43;;;;;;;10.80;5.25;;;;;;;;;;4994103;28;20015;-68
2023/07/16 02:40:09;;;;;;;10.02;5.05;;;;;;;;;;4988713;28;20077;-68
2023/07/16 02:42:34;;;;;;;13.45;5.30;;;;;;;;;;4978202;28;20027;-67
2023/07/16 02:44:59;;;;;;;10.13;4.93;;;;;;;;;;4977625;28;20534;-67
2023/07/16 02:47:24;;;;;;;12.60;5.57;;;;;;;;;;4987774;28;20438;-67
2023/07/16 02:49:52;;;;;;;13.68;5.25;;;;;;;;;;4996486;28;20387;-67
2023/07/16 02:52:17;;;;;;;9.90;5.30;;;;;;;;;;4977152;28;20035;-67
2023/07/16 02:54:43;;;;;;;10.40;5.18;;;;;;;;;;4977633;28;20045;-67
2023/07/16 02:57:08;;;;;;;9.43;5.05;;;;;;;;;;4995828;28;20496;-67
2023/07/16 02:59:33;;;;;;;9.63;5.00;;;;;;;;;;4996485;28;20034;-67
2023/07/16 03:01:58;;;;;;;10.18;4.57;;;;;;;;;;4991278;28;20088;-68
2023/07/16 03:04:24;;;;;;;9.43;4.45;;;;;;;;;;5004475;28;20445;-67
2023/07/16 03:06:49;;;;;;;10.25;4.53;;;;;;;;;;5015839;28;20022;-67
2023/07/16 03:09:15;;;;;;;11.05;4.47;;;;;;;;;;5016031;28;20022;-67
2023/07/16 03:11:40;;;;;;;9.77;4.72;;;;;;;;;;5015407;28;20037;-66
2023/07/16 03:14:05;;;;;;;9.25;4.35;;;;;;;;;;5015480;28;20050;-68
2023/07/16 03:16:31;;;;;;;12.50;3.97;;;;;;;;;;5011303;28;20034;-69
2023/07/16 03:18:56;;;;;;;11.80;4.10;;;;;;;;;;5012118;28;20025;-68
2023/07/16 03:21:21;;;;;;;8.50;3.70;;;;;;;;;;5015163;28;20434;-68
2023/07/16 03:23:46;;;;;;;6.65;3.58;;;;;;;;;;5015151;28;20401;-68
2023/07/16 03:26:12;;;;;;;10.48;3.47;;;;;;;;;;5012608;28;20022;-67
2023/07/16 03:28:37;;;;;;;7.63;3.08;;;;;;;;;;4997631;28;20087;-68
2023/07/16 03:31:02;;;;;;;7.40;3.40;;;;;;;;;;5013653;28;20489;-68
2023/07/16 03:33:28;;;;;;;10.75;3.20;;;;;;;;;;5012276;28;20026;-68
2023/07/16 03:35:53;;;;;;;7.28;3.42;;;;;;;;;;5011706;28;20394;-68
2023/07/16 03:38:18;;;;;;;8.32;3.67;;;;;;;;;;5010745;28;20030;-68
2023/07/16 03:40:46;;;;;;;9.18;2.78;;;;;;;;;;5013051;28;20045;-68
2023/07/16 03:43:12;;;;;;;7.93;3.10;;;;;;;;;;5014548;28;20042;-68
2023/07/16 03:45:37;;;;;;;10.88;3.33;;;;;;;;;;5009267;28;20376;-68
2023/07/16 03:48:02;;;;;;;5.25;2.80;;;;;;;;;;5012135;28;20390;-68
2023/07/16 03:50:27;;;;;;;10.55;3.10;;;;;;;;;;5012157;28;20113;-68
2023/07/16 03:52:53;;;;;;;9.40;3.00;;;;;;;;;;5012870;28;20026;-68
2023/07/16 03:55:18;;;;;;;11.32;3.00;;;;;;;;;;5014668;28;20034;-68
2023/07/16 03:57:43;;;;;;;5.85;2.78;;;;;;;;;;4998009;28;20036;-68
2023/07/16 04:00:09;;;;;;;7.90;2.85;;;;;;;;;;5013175;28;20034;-68
2023/07/16 04:02:35;;;;;;;8.35;3.10;;;;;;;;;;5012458;28;20100;-68
2023/07/16 04:05:01;;;;;;;6.07;3.03;;;;;;;;;;5011586;28;20141;-68
2023/07/16 04:07:26;;;;;;;7.07;3.15;;;;;;;;;;5014394;28;20041;-67
2023/07/16 04:09:51;;;;;;;8.30;3.10;;;;;;;;;;5012290;28;20018;-68
2023/07/16 04:12:17;;;;;;;10.38;3.40;;;;;;;;;;5013397;28;20029;-67
2023/07/16 04:14:42;;;;;;;5.30;3.10;;;;;;;;;;5014658;28;20030;-65
2023/07/16 04:17:07;;;;;;;8.00;3.00;;;;;;;;;;5010388;28;20026;-67
2023/07/16 04:19:33;;;;;;;8.65;2.63;;;;;;;;;;5010821;28;20658;-68
2023/07/16 04:21:58;;;;;;;6.10;2.65;;;;;;;;;;5012427;28;20033;-67
2023/07/16 04:24:23;;;;;;;10.18;3.33;;;;;;;;;;5013815;28;20038;-64
2023/07/16 04:26:49;;;;;;;9.13;3.03;;;;;;;;;;5011079;28;20068;-64
2023/07/16 04:29:14;;;;;;;7.53;3.00;;;;;;;;;;5013048;28;20097;-63
2023/07/16 04:31:40;;;;;;;6.90;2.58;;;;;;;;;;4994466;28;20026;-63
2023/07/16 04:34:06;;;;;;;5.47;2.10;;;;;;;;;;5013523;28;20397;-62
2023/07/16 04:36:31;;;;;;;5.38;2.17;;;;;;;;;;5011346;28;20025;-63
2023/07/16 04:38:56;;;;;;;5.30;2.08;;;;;;;;;;5012637;28;20050;-63
2023/07/16 04:41:22;;;;;;;6.15;2.10;;;;;;;;;;5012836;28;20426;-62
2023/07/16 04:43:47;;;;;;;5.97;2.30;;;;;;;;;;5013202;28;20386;-62
2023/07/16 04:46:12;;;;;;;5.28;2.00;;;;;;;;;;5012727;28;20026;-62
2023/07/16 04:48:38;;;;;;;7.80;2.50;;;;;;;;;;5004242;28;20139;-63
2023/07/16 04:51:03;;;;;;;6.07;1.63;;;;;;;;;;5011370;28;20112;-62
2023/07/16 04:53:29;;;;;;;6.60;2.10;;;;;;;;;;5007052;28;20022;-63
2023/07/16 04:55:54;;;;;;;5.60;1.60;;;;;;;;;;5013577;28;20026;-63
2023/07/16 04:58:19;;;;;;;8.15;1.80;;;;;;;;;;5011360;28;20075;-62
2023/07/16 05:00:45;;;;;;;4.55;1.77;;;;;;;;;;5012614;28;20076;-62
2023/07/16 05:03:10;;;;;;;7.97;2.38;;;;;;;;;;5011467;28;20038;-62
2023/07/16 05:05:36;;;;;;;6.78;1.95;;;;;;;;;;5012627;28;20399;-63
2023/07/16 05:08:01;;;;;;;3.40;1.70;;;;;;;;;;5012589;28;20030;-63
2023/07/16 05:10:29;;;;;;;6.28;2.00;;;;;;;;;;5013011;28;20080;-62
2023/07/16 05:12:54;;;;;;;5.10;1.80;;;;;;;;;;5011938;28;20113;-63
2023/07/16 05:15:20;;;;;;;6.30;1.88;;;;;;;;;;5011892;28;20114;-63
2023/07/16 05:17:48;;;;;;;5.05;1.67;;;;;;;;;;5010755;28;20036;-63
2023/07/16 05:20:13;;;;;;;4.50;1.48;;;;;;;;;;5012338;28;20433;-63
2023/07/16 05:22:38;;;;;;;4.75;1.63;;;;;;;;;;5012541;28;20025;-63
2023/07/16 05:25:04;;;;;;;6.78;1.52;;;;;;;;;;5001030;28;20045;-63
2023/07/16 05:27:29;;;;;;;4.15;1.52;;;;;;;;;;5011441;28;20018;-64
2023/07/16 05:29:54;;;;;;;4.40;1.50;;;;;;;;;;5009827;28;20022;-62
2023/07/16 05:32:20;;;;;;;7.05;1.60;;;;;;;;;;5010013;28;20026;-62
2023/07/16 05:34:45;;;;;;;3.65;1.40;;;;;;;;;;5011967;28;20033;-63
2023/07/16 05:37:11;;;;;;;5.13;1.80;;;;;;;;;;5010655;28;20022;-63
2023/07/16 05:39:37;;;;;;;4.68;1.90;;;;;;;;;;5013088;28;20037;-63
2023/07/16 05:42:02;;;;;;;6.75;1.58;;;;;;;;;;5012798;28;20026;-63
2023/07/16 05:44:28;;;;;;;6.30;1.50;;;;;;;;;;5010384;28;20030;-62
2023/07/16 05:46:53;;;;;;;4.35;1.50;;;;;;;;;;5010974;28;20032;-62
2023/07/16 05:49:18;;;;;;;6.35;1.48;;;;;;;;;;5010700;28;20030;-62
2023/07/16 05:51:44;;;;;;;4.88;1.38;;;;;;;;;;5006124;28;20022;-63
2023/07/16 05:54:09;;;;;;;4.18;1.60;;;;;;;;;;5010325;28;20033;-63
2023/07/16 05:56:34;;;;;;;4.68;1.50;;;;;;;;;;5012604;28;20033;-64
2023/07/16 05:59:09;;;;;;;5.65;1.50;;;;;;;;;;5012485;28;20054;-63
2023/07/16 06:01:35;;;;;;;6.90;1.50;;;;;;;;;;5011031;28;20030;-63
2023/07/16 06:04:00;;;;;;;4.07;1.48;;;;;;;;;;5010948;28;20073;-63
2023/07/16 06:06:27;;;;;;;4.05;1.40;;;;;;;;;;5012742;28;20030;-62
2023/07/16 06:08:52;;;;;;;5.00;1.60;;;;;;;;;;5012751;28;20030;-62
2023/07/16 06:11:18;;;;;;;5.18;1.80;;;;;;;;;;5007423;28;20026;-62
2023/07/16 06:13:43;;;;;;;6.13;1.90;;;;;;;;;;5015043;28;20030;-63
2023/07/16 06:16:08;;;;;;;7.30;1.90;;;;;;;;;;5016207;28;20022;-64
2023/07/16 06:18:33;;;;;;;4.80;2.08;;;;;;;;;;5013860;28;20017;-64
2023/07/16 06:20:59;;;;;;;5.72;2.42;;;;;;;;;;5015973;28;20024;-67
2023/07/16 06:23:25;;;;;;;5.97;2.45;;;;;;;;;;5014823;28;20064;-66
2023/07/16 06:25:53;;;;;;;5.32;2.75;;;;;;;;;;5003390;28;20524;-68
2023/07/16 06:28:18;;;;;;;7.85;3.55;;;;;;;;;;5011904;28;20418;-68
2023/07/16 06:30:44;;;;;;;5.75;2.97;;;;;;;;;;5015822;28;20030;-69
2023/07/16 06:33:09;;;;;;;6.20;3.47;;;;;;;;;;5015525;28;20022;-66
2023/07/16 06:35:35;;;;;;;5.88;3.30;;;;;;;;;;5015506;28;20463;-63
2023/07/16 06:38:00;;;;;;;7.45;3.35;;;;;;;;;;5014229;28;20026;-64
2023/07/16 06:40:26;;;;;;;5.38;2.85;;;;;;;;;;5012647;28;20559;-63
2023/07/16 06:42:51;;;;;;;6.35;2.50;;;;;;;;;;5015198;28;20060;-63
2023/07/16 06:45:19;;;;;;;4.53;2.30;;;;;;;;;;5015938;28;20407;-62
2023/07/16 06:47:44;;;;;;;7.35;2.33;;;;;;;;;;5014168;28;20124;-62
2023/07/16 06:50:09;;;;;;;7.35;2.33;;;;;;;;;;5015713;28;20057;-63
2023/07/16 06:52:35;;;;;;;8.38;2.25;;;;;;;;;;5015123;28;20045;-63
2023/07/16 06:55:00;;;;;;;7.05;1.40;;;;;;;;;;5015358;28;20022;-62
2023/07/16 06:57:25;;;;;;;6.05;2.30;;;;;;;;;;5012555;28;20492;-63
2023/07/16 06:59:53;;;;;;;5.68;1.70;;;;;;;;;;5014271;28;20068;-64
2023/07/16 07:02:19;;;;;;;5.10;1.88;;;;;;;;;;5015224;28;20458;-63
2023/07/16 07:04:45;;;;;;;5.63;2.20;;;;;;;;;;5014639;28;20494;-63
2023/07/16 07:07:10;;;;;;;5.18;2.17;;;;;;;;;;5013909;28;20033;-65
2023/07/16 07:09:35;;;;;;;7.25;2.25;;;;;;;;;;5012996;28;20109;-63
2023/07/16 07:12:01;;;;;;;7.82;2.47;;;;;;;;;;5015468;28;20076;-63
2023/07/16 07:14:26;;;;;;;8.80;1.92;;;;;;;;;;5014274;28;20378;-62
2023/07/16 07:16:51;;;;;;;7.13;2.50;;;;;;;;;;5014360;28;20092;-63
2023/07/16 07:19:16;;;;;;;6.65;2.25;;;;;;;;;;5012814;28;20030;-64
2023/07/16 07:21:42;;;;;;;6.65;2.60;;;;;;;;;;5014198;28;20033;-64
2023/07/16 07:24:07;;;;;;;6.50;2.70;;;;;;;;;;5013545;28;20030;-65
2023/07/16 07:26:32;;;;;;;6.70;2.10;;;;;;;;;;5012724;28;20148;-63
2023/07/16 07:28:57;;;;;;;5.45;2.50;;;;;;;;;;5011227;28;20065;-63
2023/07/16 07:31:23;;;;;;;7.88;2.38;;;;;;;;;;5013325;28;20470;-62
2023/07/16 07:33:48;;;;;;;7.10;2.33;;;;;;;;;;5013268;28;20014;-63
2023/07/16 07:36:13;;;;;;;4.50;2.17;;;;;;;;;;5014358;28;20020;-62
2023/07/16 07:38:38;;;;;;;11.50;2.70;;;;;;;;;;5007889;28;20024;-63
2023/07/16 07:41:07;;;;;;;6.22;2.10;;;;;;;;;;5014414;28;20057;-63
2023/07/16 07:43:32;;;;;;;5.25;2.22;;;;;;;;;;5013573;28;20030;-62
2023/07/16 07:45:57;;;;;;;6.90;2.38;;;;;;;;;;5013708;28;20541;-61
2023/07/16 07:48:22;;;;;;;8.68;2.20;;;;;;;;;;5013308;28;20026;-63
2023/07/16 07:50:48;;;;;;;7.38;2.30;;;;;;;;;;5015046;28;20033;-62
2023/07/16 07:53:14;;;;;;;5.38;1.67;;;;;;;;;;5012170;28;20019;-61
2023/07/16 07:55:40;;;;;;;6.90;2.30;;;;;;;;;;5014091;28;20041;-60
2023/07/16 07:58:06;;;;;;;5.80;2.50;;;;;;;;;;5014797;28;20021;-62
2023/07/16 08:00:31;;;;;;;6.40;2.28;;;;;;;;;;5011965;28;20422;-62
2023/07/16 08:02:56;;;;;;;5.50;2.20;;;;;;;;;;5014542;28;20398;-63
2023/07/16 08:05:22;;;;;;;5.50;2.28;;;;;;;;;;5014091;28;20030;-65
2023/07/16 08:07:47;;;;;;;6.45;2.58;;;;;;;;;;5014712;28;20441;-63
2023/07/16 08:10:12;;;;;;;6.43;2.60;;;;;;;;;;5014716;28;20033;-62
2023/07/16 08:12:39;;;;;;;7.50;2.15;;;;;;;;;;5014642;28;20049;-62
2023/07/16 08:15:07;;;;;;;5.90;2.15;;;;;;;;;;5014613;28;20024;-64
2023/07/16 08:17:32;;;;;;;5.28;2.38;;;;;;;;;;5013213;28;20033;-63
2023/07/16 08:19:57;;;;;;;10.18;2.70;;;;;;;;;;5014513;28;20025;-62
2023/07/16 08:22:24;;;;;;;9.68;2.75;;;;;;;;;;5014559;28;20025;-62
2023/07/16 08:24:50;;;;;;;9.27;2.55;;;;;;;;;;5014708;28;20565;-62
2023/07/16 08:27:16;;;;;;;7.55;2.58;;;;;;;;;;5014429;28;20101;-61
2023/07/16 08:29:41;;;;;;;6.97;2.42;;;;;;;;;;5001765;28;20050;-62
2023/07/16 08:32:06;;;;;;;7.30;2.67;;;;;;;;;;5012833;28;20045;-61
2023/07/16 08:34:32;;;;;;;7.60;2.55;;;;;;;;;;5014277;28;20075;-60
2023/07/16 08:36:57;;;;;;;5.05;2.13;;;;;;;;;;5013059;28;20071;-62
2023/07/16 08:39:22;;;;;;;7.15;2.60;;;;;;;;;;5014560;28;20108;-62
2023/07/16 08:41:48;;;;;;;6.72;2.50;;;;;;;;;;5014547;28;20029;-62
2023/07/16 08:44:13;;;;;;;6.93;2.47;;;;;;;;;;5002686;28;20022;-63
2023/07/16 08:46:39;;;;;;;6.70;2.33;;;;;;;;;;4994510;28;20114;-64
2023/07/16 08:49:06;;;;;;;5.05;2.55;;;;;;;;;;5011602;28;20036;-63
2023/07/16 08:51:31;;;;;;;6.18;1.95;;;;;;;;;;5013531;28;20026;-62
2023/07/16 08:53:56;;;;;;;4.50;2.05;;;;;;;;;;5013284;28;20048;-62
2023/07/16 08:56:21;;;;;;;4.95;1.50;;;;;;;;;;5012355;28;20500;-62
2023/07/16 08:58:47;;;;;;;6.53;2.15;;;;;;;;;;5012693;28;20030;-62
2023/07/16 09:01:13;;;;;;;5.07;1.67;;;;;;;;;;5013586;28;20013;-62
2023/07/16 09:03:38;;;;;;;6.05;1.98;;;;;;;;;;5012237;28;20029;-63
2023/07/16 09:06:04;;;;;;;6.93;1.92;;;;;;;;;;5010369;28;20030;-63
2023/07/16 09:08:29;;;;;;;5.25;1.73;;;;;;;;;;5013710;28;20026;-65
2023/07/16 09:10:55;;;;;;;5.10;1.80;;;;;;;;;;5013597;28;20033;-63
2023/07/16 09:13:21;;;;;;;4.78;2.25;;;;;;;;;;5013602;28;20067;-63
2023/07/16 09:15:56;;;;;;;6.43;2.13;;;;;;;;;;5013939;28;20417;-63
2023/07/16 09:18:21;;;;;;;8.48;2.00;;;;;;;;;;5010637;28;20041;-65
2023/07/16 09:20:47;;;;;;;6.35;2.28;;;;;;;;;;5009247;28;20029;-65
2023/07/16 09:23:12;;;;;;;5.43;2.30;;;;;;;;;;5012105;28;20026;-65
2023/07/16 09:25:39;;;;;;;6.53;2.20;;;;;;;;;;5013597;28;20021;-64
2023/07/16 09:28:05;;;;;;;5.72;2.13;;;;;;;;;;5010566;28;20034;-62
2023/07/16 09:30:31;;;;;;;4.15;1.90;;;;;;;;;;5013333;28;20022;-62
2023/07/16 09:32:56;;;;;;;4.53;1.70;;;;;;;;;;5011834;28;20774;-64
2023/07/16 09:35:21;;;;;;;6.65;2.13;;;;;;;;;;5010609;28;20049;-63
2023/07/16 09:37:46;;;;;;;6.57;2.10;;;;;;;;;;4994848;28;20081;-65
2023/07/16 09:40:12;;;;;;;5.05;1.85;;;;;;;;;;5007650;28;20018;-66
2023/07/16 09:42:41;;;;;;;5.50;2.20;;;;;;;;;;5012575;28;20010;-64
2023/07/16 09:45:10;;;;;;;6.55;2.20;;;;;;;;;;4993682;28;20453;-65
2023/07/16 09:47:35;;;;;;;5.90;2.22;;;;;;;;;;5015484;28;20026;-63
2023/07/16 09:50:01;;;;;;;5.55;2.08;;;;;;;;;;5016253;28;20410;-63
2023/07/16 09:52:27;;;;;;;3.47;1.55;;;;;;;;;;5019282;28;20056;-63
2023/07/16 09:54:54;;;;;;;5.05;1.70;;;;;;;;;;5016064;28;20045;-63
2023/07/16 09:57:20;;;;;;;5.93;1.70;;;;;;;;;;5019796;28;20454;-63
2023/07/16 09:59:46;;;;;;;5.35;2.47;;;;;;;;;;5017763;28;20019;-62
2023/07/16 10:02:11;;;;;;;4.57;1.88;;;;;;;;;;5000068;28;20022;-63
2023/07/16 10:04:39;;;;;;;4.38;1.77;;;;;;;;;;5010522;28;20056;-62
2023/07/16 10:07:05;;;;;;;9.27;1.85;;;;;;;;;;5018936;28;20126;-62
2023/07/16 10:09:40;;;;;;;3.78;1.77;;;;;;;;;;5018983;28;20041;-63
2023/07/16 10:12:12;;;;;;;4.22;1.88;;;;;;;;;;5018557;28;20022;-64
2023/07/16 10:14:45;;;;;;;4.90;1.90;;;;;;;;;;5017870;28;20148;-63
2023/07/16 10:17:16;;;;;;;4.63;2.13;;;;;;;;;;5017873;28;20370;-62
2023/07/16 10:20:01;;;;;;;6.10;2.00;;;;;;;;;;5018023;28;20010;-64
2023/07/16 10:22:36;;;;;;;4.75;1.85;;;;;;;;;;5018643;28;20018;-65
2023/07/16 10:25:25;;;;;;;4.70;1.73;;;;;;;;;;5018493;28;20021;-64
2023/07/16 10:27:51;;;;;;;3.47;1.70;;;;;;;;;;4902048;29;20037;-63
2023/07/16 10:30:17;;;;;;;5.75;1.70;;;;;;;;;;4901831;29;20521;-64
2023/07/16 10:32:42;;;;;;;4.57;1.80;;;;;;;;;;4915133;29;20044;-64
2023/07/16 10:35:09;;;;;;;5.93;1.60;;;;;;;;;;4917745;29;20020;-65
2023/07/16 10:37:34;;;;;;;4.85;1.50;;;;;;;;;;4920733;29;20063;-65
2023/07/16 10:40:05;;;;;;;5.32;1.70;;;;;;;;;;4919258;29;20103;-65
2023/07/16 10:42:31;;;;;;;5.53;1.85;;;;;;;;;;4920241;29;20032;-65
2023/07/16 10:45:00;;;;;;;5.93;2.17;;;;;;;;;;4919395;29;20039;-65
2023/07/16 10:47:29;;;;;;;4.30;1.75;;;;;;;;;;4917229;29;20044;-67
2023/07/16 10:49:54;;;;;;;6.10;1.80;;;;;;;;;;4919076;29;20511;-65
2023/07/16 10:52:20;;;;;;;7.10;1.90;;;;;;;;;;4920523;29;20048;-67
2023/07/16 10:54:45;;;;;;;5.43;1.98;;;;;;;;;;4920688;29;20027;-64
2023/07/16 10:57:12;;;;;;;3.65;1.50;;;;;;;;;;4920539;29;20032;-65
2023/07/16 10:59:38;;;;;;;4.00;1.70;;;;;;;;;;4916629;29;20103;-65
2023/07/16 11:02:04;;;;;;;4.65;1.83;;;;;;;;;;4917659;29;20024;-65
2023/07/16 11:04:33;;;;;;;6.70;2.17;;;;;;;;;;4950884;28;20095;-65
2023/07/16 11:06:58;;;;;;;4.07;1.77;;;;;;;;;;5016278;28;20022;-64
2023/07/16 11:09:23;;;;;;;6.82;1.77;;;;;;;;;;5015222;28;20017;-65
2023/07/16 11:11:49;;;;;;;3.25;1.60;;;;;;;;;;5016135;28;20026;-65
2023/07/16 11:14:14;;;;;;;4.40;1.77;;;;;;;;;;5015212;28;20378;-65
2023/07/16 11:16:39;;;;;;;5.20;1.55;;;;;;;;;;5016162;28;20010;-64
2023/07/16 11:19:08;;;;;;;4.28;1.40;;;;;;;;;;5013828;28;20014;-66
2023/07/16 11:21:33;;;;;;;3.53;1.70;;;;;;;;;;5016001;28;20482;-65
2023/07/16 11:24:15;;;;;;;7.43;1.65;;;;;;;;;;5013940;28;20022;-64
2023/07/16 11:26:49;;;;;;;3.95;1.83;;;;;;;;;;5014988;28;20056;-64
2023/07/16 11:29:14;;;;;;;5.25;1.65;;;;;;;;;;5015556;28;20053;-66
2023/07/16 11:31:41;;;;;;;3.38;1.52;;;;;;;;;;5015492;28;20535;-65
2023/07/16 11:34:07;;;;;;;6.28;1.70;;;;;;;;;;5012576;28;20355;-65
2023/07/16 11:36:32;;;;;;;5.75;1.70;;;;;;;;;;5015328;28;20497;-65
2023/07/16 11:38:58;;;;;;;4.28;1.60;;;;;;;;;;5015731;28;20018;-64
2023/07/16 11:41:23;;;;;;;4.22;1.55;;;;;;;;;;5013783;28;20382;-64
2023/07/16 11:43:48;;;;;;;4.82;1.90;;;;;;;;;;5015307;28;20030;-64
2023/07/16 11:46:15;;;;;;;5.43;1.77;;;;;;;;;;5011240;28;20363;-65
2023/07/16 11:48:41;;;;;;;2.75;1.25;;;;;;;;;;5008045;28;20033;-65
2023/07/16 11:51:06;;;;;;;3.70;1.60;;;;;;;;;;5007519;28;20376;-66
2023/07/16 11:53:31;;;;;;;5.95;1.98;;;;;;;;;;4996049;28;20477;-65
2023/07/16 11:55:56;;;;;;;4.75;2.00;;;;;;;;;;5001475;28;20022;-65
2023/07/16 11:58:21;;;;;;;5.45;1.90;;;;;;;;;;5004502;28;20390;-65
2023/07/16 12:00:47;;;;;;;5.75;1.80;;;;;;;;;;5012768;28;20030;-65
2023/07/16 12:03:12;;;;;;;4.00;1.50;;;;;;;;;;5012660;28;20422;-64
2023/07/16 12:05:37;;;;;;;3.97;1.50;;;;;;;;;;5012671;28;20549;-66
2023/07/16 12:08:03;;;;;;;6.75;1.83;;;;;;;;;;5013727;28;20362;-66
2023/07/16 12:10:29;;;;;;;4.63;1.65;;;;;;;;;;5013721;28;20034;-67
2023/07/16 12:12:54;;;;;;;4.65;1.60;;;;;;;;;;5014194;28;20022;-66
2023/07/16 12:15:19;;;;;;;4.72;1.70;;;;;;;;;;5016622;28;20053;-66
2023/07/16 12:17:44;;;;;;;6.03;2.00;;;;;;;;;;5015470;28;20489;-71
2023/07/16 12:20:10;;;;;;;4.32;1.67;;;;;;;;;;5012480;28;20072;-71
2023/07/16 12:22:36;;;;;;;5.75;2.05;;;;;;;;;;5013980;28;20010;-71
2023/07/16 12:25:01;;;;;;;5.75;1.73;;;;;;;;;;5012552;28;20048;-68
2023/07/16 12:27:26;;;;;;;4.72;2.00;;;;;;;;;;5014574;28;20071;-69
2023/07/16 12:29:52;;;;;;;3.55;1.60;;;;;;;;;;5014738;28;20017;-70
2023/07/16 12:32:17;;;;;;;5.25;1.88;;;;;;;;;;5014269;28;20034;-68
2023/07/16 12:34:42;;;;;;;7.32;1.80;;;;;;;;;;5012639;28;20028;-68
2023/07/16 12:37:08;;;;;;;5.15;1.77;;;;;;;;;;5014628;28;20018;-68
2023/07/16 12:39:33;;;;;;;5.00;1.70;;;;;;;;;;5006615;28;20029;-63
2023/07/16 12:41:58;;;;;;;4.47;1.80;;;;;;;;;;5007993;28;20544;-63
2023/07/16 12:44:24;;;;;;;5.38;2.30;;;;;;;;;;5008885;28;20032;-63
2023/07/16 12:46:49;;;;;;;3.72;1.90;;;;;;;;;;5010851;28;20671;-63
2023/07/16 12:49:15;;;;;;;4.75;2.00;;;;;;;;;;5003239;28;20026;-64
2023/07/16 12:51:40;;;;;;;4.75;1.75;;;;;;;;;;5005582;28;20104;-64
2023/07/16 12:54:05;;;;;;;3.85;1.50;;;;;;;;;;5005738;28;20478;-65
2023/07/16 12:56:31;;;;;;;6.63;2.20;;;;;;;;;;5007505;28;20351;-64
2023/07/16 12:58:56;;;;;;;4.22;1.75;;;;;;;;;;5009177;28;20382;-64
2023/07/16 13:01:21;;;;;;;4.97;2.08;;;;;;;;;;5005509;28;20386;-64
2023/07/16 13:03:46;;;;;;;5.20;2.00;;;;;;;;;;5009370;28;20137;-64
2023/07/16 13:06:12;;;;;;;5.38;1.75;;;;;;;;;;4990481;28;20419;-64
2023/07/16 13:08:37;;;;;;;5.15;1.60;;;;;;;;;;5011370;28;20359;-65
2023/07/16 13:11:02;;;;;;;5.63;2.00;;;;;;;;;;5010953;28;20383;-65
2023/07/16 13:13:28;;;;;;;6.43;2.17;;;;;;;;;;5012669;28;20382;-65
2023/07/16 13:15:53;;;;;;;4.75;2.00;;;;;;;;;;5011516;28;20065;-65
2023/07/16 13:18:18;;;;;;;3.83;1.70;;;;;;;;;;5011572;28;20045;-65
2023/07/16 13:20:44;;;;;;;5.65;1.98;;;;;;;;;;5007782;28;20028;-64
2023/07/16 13:23:09;;;;;;;7.00;2.40;;;;;;;;;;5006670;28;20018;-66
2023/07/16 13:25:35;;;;;;;4.15;1.75;;;;;;;;;;5007906;28;20044;-66
2023/07/16 13:28:00;;;;;;;3.95;1.58;;;;;;;;;;5005883;28;20030;-65
2023/07/16 13:30:26;;;;;;;5.13;2.10;;;;;;;;;;5009262;28;20049;-66
2023/07/16 13:32:51;;;;;;;5.35;1.90;;;;;;;;;;5009696;28;20080;-66
2023/07/16 13:35:16;;;;;;;5.10;1.92;;;;;;;;;;5009254;28;20057;-65
2023/07/16 13:37:42;;;;;;;4.85;2.05;;;;;;;;;;5008438;28;20484;-66
2023/07/16 13:40:08;;;;;;;6.28;2.15;;;;;;;;;;5009126;28;20022;-65
2023/07/16 13:42:33;;;;;;;5.82;2.03;;;;;;;;;;5004484;28;20414;-65
2023/07/16 13:44:58;;;;;;;4.97;1.92;;;;;;;;;;5000636;28;20053;-65
2023/07/16 13:47:24;;;;;;;4.55;1.90;;;;;;;;;;5003982;28;20101;-66
2023/07/16 13:49:50;;;;;;;5.30;2.00;;;;;;;;;;5006808;28;20025;-66
2023/07/16 13:52:15;;;;;;;2.95;1.52;;;;;;;;;;5009110;28;20018;-65
2023/07/16 13:54:40;;;;;;;4.95;1.85;;;;;;;;;;4988114;28;20029;-65
2023/07/16 13:57:05;;;;;;;5.97;2.00;;;;;;;;;;5008744;28;20025;-65
2023/07/16 13:59:31;;;;;;;9.75;2.10;;;;;;;;;;5006371;28;20442;-65
2023/07/16 14:02:00;;;;;;;8.07;2.10;;;;;;;;;;5003261;28;20512;-65
2023/07/16 14:04:26;;;;;;;5.93;2.10;;;;;;;;;;5007746;28;20156;-66
2023/07/16 14:06:52;;;;;;;4.95;1.75;;;;;;;;;;5000454;28;20131;-65
2023/07/16 14:09:19;;;;;;;4.75;1.92;;;;;;;;;;5008511;28;20022;-66
2023/07/16 14:11:47;;;;;;;6.75;1.98;;;;;;;;;;4999813;28;20443;-65
2023/07/16 14:14:12;;;;;;;4.47;1.77;;;;;;;;;;5005155;28;20018;-64
2023/07/16 14:16:38;;;;;;;3.60;1.90;;;;;;;;;;4993891;28;20030;-66
2023/07/16 14:19:03;;;;;;;5.15;1.80;;;;;;;;;;5002281;28;20052;-65
2023/07/16 14:21:30;;;;;;;4.32;2.08;;;;;;;;;;5005930;28;20045;-64
2023/07/16 14:23:55;;;;;;;4.80;1.80;;;;;;;;;;5005219;28;20025;-66
2023/07/16 14:26:20;;;;;;;4.60;2.10;;;;;;;;;;5010918;28;20022;-66
2023/07/16 14:28:45;;;;;;;4.13;1.92;;;;;;;;;;5012198;28;20085;-66
2023/07/16 14:31:11;;;;;;;5.55;2.22;;;;;;;;;;5007259;28;20022;-67
2023/07/16 14:33:37;;;;;;;3.83;1.90;;;;;;;;;;5004154;28;20089;-66